sensor_id;sensor_type;location;lat;lon;timestamp;pressure;altitude;pressure_sealevel;temperature;humidity
16100;BME280;8154;50.830;12.082;2022-07-04T00:02:44;99498.06;;;28.90;32.96
16100;BME280;8154;50.830;12.082;2022-07-04T00:05:29;99492.44;;;28.92;32.91
16100;BME280;8154;50.830;12.082;2022-07-04T00:08:13;99503.66;;;28.89;32.90
16100;BME280;8154;50.830;12.082;2022-07-04T00:10:57;99508.59;;;28.92;32.70
16100;BME280;8154;50.830;12.082;2022-07-04T00:13:41;99505.31;;;28.90;32.76
16100;BME280;8154;50.830;12.082;2022-07-04T00:16:26;99515.25;;;28.89;32.78
16100;BME280;8154;50.830;12.082;2022-07-04T00:19:10;99506.59;;;28.87;32.79
16100;BME280;8154;50.830;12.082;2022-07-04T00:21:54;99503.31;;;28.85;32.69
16100;BME280;8154;50.830;12.082;2022-07-04T00:24:39;99510.81;;;28.83;32.49
16100;BME280;8154;50.830;12.082;2022-07-04T00:27:23;99509.38;;;28.81;32.44
16100;BME280;8154;50.830;12.082;2022-07-04T00:30:08;99516.19;;;28.83;32.70
16100;BME280;8154;50.830;12.082;2022-07-04T00:32:52;99521.09;;;28.86;32.60
16100;BME280;8154;50.830;12.082;2022-07-04T00:35:37;99529.63;;;28.83;32.46
16100;BME280;8154;50.830;12.082;2022-07-04T00:38:21;99529.03;;;28.81;32.34
16100;BME280;8154;50.830;12.082;2022-07-04T00:41:05;99533.72;;;28.86;32.45
16100;BME280;8154;50.830;12.082;2022-07-04T00:44:00;99543.09;;;28.83;32.47
16100;BME280;8154;50.830;12.082;2022-07-04T00:46:46;99542.25;;;28.83;32.57
16100;BME280;8154;50.830;12.082;2022-07-04T00:49:30;99543.53;;;28.80;32.43
16100;BME280;8154;50.830;12.082;2022-07-04T00:52:15;99545.19;;;28.81;32.85
16100;BME280;8154;50.830;12.082;2022-07-04T00:55:00;99554.72;;;28.77;32.71
16100;BME280;8154;50.830;12.082;2022-07-04T00:57:46;99547.50;;;28.78;32.56
16100;BME280;8154;50.830;12.082;2022-07-04T01:00:30;99551.25;;;28.77;32.76
16100;BME280;8154;50.830;12.082;2022-07-04T01:03:15;99557.78;;;28.81;32.71
16100;BME280;8154;50.830;12.082;2022-07-04T01:06:00;99560.25;;;28.82;32.83
16100;BME280;8154;50.830;12.082;2022-07-04T01:08:45;99565.63;;;28.82;32.57
16100;BME280;8154;50.830;12.082;2022-07-04T01:11:29;99560.63;;;28.86;32.46
16100;BME280;8154;50.830;12.082;2022-07-04T01:14:13;99563.31;;;28.86;32.57
16100;BME280;8154;50.830;12.082;2022-07-04T01:16:57;99574.09;;;28.86;32.68
16100;BME280;8154;50.830;12.082;2022-07-04T01:19:42;99575.47;;;28.88;32.44
16100;BME280;8154;50.830;12.082;2022-07-04T01:22:26;99577.00;;;28.84;32.88
16100;BME280;8154;50.830;12.082;2022-07-04T01:25:11;99575.94;;;28.85;32.59
16100;BME280;8154;50.830;12.082;2022-07-04T01:27:54;99581.31;;;28.85;32.51
16100;BME280;8154;50.830;12.082;2022-07-04T01:30:38;99591.84;;;28.87;32.71
16100;BME280;8154;50.830;12.082;2022-07-04T01:33:22;99595.59;;;28.86;32.61
16100;BME280;8154;50.830;12.082;2022-07-04T01:36:06;99598.53;;;28.84;32.67
16100;BME280;8154;50.830;12.082;2022-07-04T01:38:51;99591.06;;;28.86;32.68
16100;BME280;8154;50.830;12.082;2022-07-04T01:41:35;99587.31;;;28.87;32.69
16100;BME280;8154;50.830;12.082;2022-07-04T01:44:19;99588.38;;;28.86;32.92
16100;BME280;8154;50.830;12.082;2022-07-04T01:47:03;99586.25;;;28.88;32.58
16100;BME280;8154;50.830;12.082;2022-07-04T01:49:49;99584.63;;;28.87;32.68
16100;BME280;8154;50.830;12.082;2022-07-04T01:52:34;99582.75;;;28.88;32.68
16100;BME280;8154;50.830;12.082;2022-07-04T01:55:18;99584.84;;;28.86;32.98
16100;BME280;8154;50.830;12.082;2022-07-04T01:58:02;99583.22;;;28.85;32.69
16100;BME280;8154;50.830;12.082;2022-07-04T02:00:47;99581.09;;;28.87;33.04
16100;BME280;8154;50.830;12.082;2022-07-04T02:03:50;99586.47;;;28.87;32.93
16100;BME280;8154;50.830;12.082;2022-07-04T02:06:34;99590.00;;;28.87;32.79
16100;BME280;8154;50.830;12.082;2022-07-04T02:09:19;99595.38;;;28.87;33.00
16100;BME280;8154;50.830;12.082;2022-07-04T02:12:03;99599.13;;;28.86;33.00
16100;BME280;8154;50.830;12.082;2022-07-04T02:15:07;99595.97;;;28.89;32.91
16100;BME280;8154;50.830;12.082;2022-07-04T02:17:51;99594.09;;;28.90;32.78
16100;BME280;8154;50.830;12.082;2022-07-04T02:20:36;99595.16;;;28.89;32.97
16100;BME280;8154;50.830;12.082;2022-07-04T02:23:21;99601.38;;;28.89;32.90
16100;BME280;8154;50.830;12.082;2022-07-04T02:26:04;99597.63;;;28.90;33.03
16100;BME280;8154;50.830;12.082;2022-07-04T02:28:49;99599.25;;;28.91;32.94
16100;BME280;8154;50.830;12.082;2022-07-04T02:31:33;99608.38;;;28.90;32.95
16100;BME280;8154;50.830;12.082;2022-07-04T02:34:17;99612.94;;;28.90;33.09
16100;BME280;8154;50.830;12.082;2022-07-04T02:37:01;99611.28;;;28.89;33.15
16100;BME280;8154;50.830;12.082;2022-07-04T02:39:46;99607.53;;;28.90;32.94
16100;BME280;8154;50.830;12.082;2022-07-04T02:42:31;99619.97;;;28.91;33.18
16100;BME280;8154;50.830;12.082;2022-07-04T02:45:16;99620.78;;;28.91;33.22
16100;BME280;8154;50.830;12.082;2022-07-04T02:48:00;99622.66;;;28.91;33.20
16100;BME280;8154;50.830;12.082;2022-07-04T02:50:44;99646.66;;;28.92;33.23
16100;BME280;8154;50.830;12.082;2022-07-04T02:53:28;99654.34;;;28.89;33.11
16100;BME280;8154;50.830;12.082;2022-07-04T02:56:12;99646.72;;;28.86;33.29
16100;BME280;8154;50.830;12.082;2022-07-04T02:58:56;99640.50;;;28.85;33.29
16100;BME280;8154;50.830;12.082;2022-07-04T03:01:41;99633.50;;;28.84;33.25
16100;BME280;8154;50.830;12.082;2022-07-04T03:04:26;99637.81;;;28.85;33.29
16100;BME280;8154;50.830;12.082;2022-07-04T03:07:10;99639.47;;;28.86;33.34
16100;BME280;8154;50.830;12.082;2022-07-04T03:09:54;99636.19;;;28.84;33.20
16100;BME280;8154;50.830;12.082;2022-07-04T03:12:39;99634.09;;;28.86;33.59
16100;BME280;8154;50.830;12.082;2022-07-04T03:15:23;99636.78;;;28.86;33.34
16100;BME280;8154;50.830;12.082;2022-07-04T03:18:07;99639.72;;;28.85;33.04
16100;BME280;8154;50.830;12.082;2022-07-04T03:20:51;99643.44;;;28.84;33.18
16100;BME280;8154;50.830;12.082;2022-07-04T03:23:35;99639.34;;;28.81;33.23
16100;BME280;8154;50.830;12.082;2022-07-04T03:26:20;99644.09;;;28.79;33.32
16100;BME280;8154;50.830;12.082;2022-07-04T03:29:04;99647.63;;;28.80;33.47
16100;BME280;8154;50.830;12.082;2022-07-04T03:31:48;99656.31;;;28.82;33.29
16100;BME280;8154;50.830;12.082;2022-07-04T03:34:32;99649.72;;;28.78;33.35
16100;BME280;8154;50.830;12.082;2022-07-04T03:37:17;99652.78;;;28.81;33.51
16100;BME280;8154;50.830;12.082;2022-07-04T03:40:01;99649.03;;;28.82;33.17
16100;BME280;8154;50.830;12.082;2022-07-04T03:42:45;99655.25;;;28.83;33.25
16100;BME280;8154;50.830;12.082;2022-07-04T03:45:29;99654.41;;;28.82;33.23
16100;BME280;8154;50.830;12.082;2022-07-04T03:48:13;99657.09;;;28.82;33.18
16100;BME280;8154;50.830;12.082;2022-07-04T03:50:58;99667.88;;;28.82;33.41
16100;BME280;8154;50.830;12.082;2022-07-04T03:53:42;99660.63;;;28.83;33.23
16100;BME280;8154;50.830;12.082;2022-07-04T03:56:26;99663.53;;;28.81;33.39
16100;BME280;8154;50.830;12.082;2022-07-04T03:59:11;99660.03;;;28.81;33.32
16100;BME280;8154;50.830;12.082;2022-07-04T04:01:55;99670.19;;;28.79;33.47
16100;BME280;8154;50.830;12.082;2022-07-04T04:04:39;99669.81;;;28.75;33.42
16100;BME280;8154;50.830;12.082;2022-07-04T04:07:42;99667.13;;;28.75;33.39
16100;BME280;8154;50.830;12.082;2022-07-04T04:10:29;99666.75;;;28.72;33.48
16100;BME280;8154;50.830;12.082;2022-07-04T04:13:14;99674.00;;;28.71;33.58
16100;BME280;8154;50.830;12.082;2022-07-04T04:15:58;99675.88;;;28.71;33.61
16100;BME280;8154;50.830;12.082;2022-07-04T04:18:42;99665.34;;;28.69;33.52
16100;BME280;8154;50.830;12.082;2022-07-04T04:21:26;99680.22;;;28.72;33.40
16100;BME280;8154;50.830;12.082;2022-07-04T04:24:11;99683.72;;;28.72;33.54
16100;BME280;8154;50.830;12.082;2022-07-04T04:26:55;99676.47;;;28.73;33.71
16100;BME280;8154;50.830;12.082;2022-07-04T04:29:39;99669.81;;;28.75;33.42
16100;BME280;8154;50.830;12.082;2022-07-04T04:32:23;99667.94;;;28.76;33.63
16100;BME280;8154;50.830;12.082;2022-07-04T04:35:08;99673.94;;;28.78;33.34
16100;BME280;8154;50.830;12.082;2022-07-04T04:37:52;99678.94;;;28.74;33.33
16100;BME280;8154;50.830;12.082;2022-07-04T04:40:36;99685.38;;;28.73;33.72
16100;BME280;8154;50.830;12.082;2022-07-04T04:43:20;99685.38;;;28.73;33.76
16100;BME280;8154;50.830;12.082;2022-07-04T04:46:04;99686.03;;;28.69;33.68
16100;BME280;8154;50.830;12.082;2022-07-04T04:48:48;99689.34;;;28.71;33.74
16100;BME280;8154;50.830;12.082;2022-07-04T04:51:33;99690.97;;;28.72;33.75
16100;BME280;8154;50.830;12.082;2022-07-04T04:54:18;99693.88;;;28.70;33.66
16100;BME280;8154;50.830;12.082;2022-07-04T04:57:03;99703.00;;;28.69;33.81
16100;BME280;8154;50.830;12.082;2022-07-04T04:59:47;99698.66;;;28.68;33.83
16100;BME280;8154;50.830;12.082;2022-07-04T05:02:32;99703.81;;;28.70;33.36
16100;BME280;8154;50.830;12.082;2022-07-04T05:05:16;99714.13;;;28.73;33.48
16100;BME280;8154;50.830;12.082;2022-07-04T05:08:01;99707.94;;;28.72;33.58
16100;BME280;8154;50.830;12.082;2022-07-04T05:10:45;99719.28;;;28.74;33.70
16100;BME280;8154;50.830;12.082;2022-07-04T05:13:30;99712.03;;;28.75;33.80
16100;BME280;8154;50.830;12.082;2022-07-04T05:16:14;99720.50;;;28.78;33.71
16100;BME280;8154;50.830;12.082;2022-07-04T05:18:58;99719.44;;;28.79;33.59
16100;BME280;8154;50.830;12.082;2022-07-04T05:21:43;99715.13;;;28.78;33.56
16100;BME280;8154;50.830;12.082;2022-07-04T05:24:28;99722.72;;;28.81;33.75
16100;BME280;8154;50.830;12.082;2022-07-04T05:27:12;99723.56;;;28.82;33.24
16100;BME280;8154;50.830;12.082;2022-07-04T05:29:57;99729.75;;;28.82;33.59
16100;BME280;8154;50.830;12.082;2022-07-04T05:32:42;99737.59;;;28.84;33.57
16100;BME280;8154;50.830;12.082;2022-07-04T05:35:26;99739.84;;;28.87;33.26
16100;BME280;8154;50.830;12.082;2022-07-04T05:38:11;99743.97;;;28.89;33.20
16100;BME280;8154;50.830;12.082;2022-07-04T05:40:55;99746.22;;;28.92;33.14
16100;BME280;8154;50.830;12.082;2022-07-04T05:43:39;99750.97;;;28.90;33.01
16100;BME280;8154;50.830;12.082;2022-07-04T05:46:25;99741.72;;;28.86;32.90
16100;BME280;8154;50.830;12.082;2022-07-04T05:49:09;99742.41;;;28.82;33.18
16100;BME280;8154;50.830;12.082;2022-07-04T05:51:54;99746.56;;;28.78;33.35
16100;BME280;8154;50.830;12.082;2022-07-04T05:54:38;99743.66;;;28.79;33.23
16100;BME280;8154;50.830;12.082;2022-07-04T05:57:22;99733.50;;;28.81;32.85
16100;BME280;8154;50.830;12.082;2022-07-04T06:00:07;99741.56;;;28.81;32.77
16100;BME280;8154;50.830;12.082;2022-07-04T06:02:51;99758.00;;;28.73;33.16
16100;BME280;8154;50.830;12.082;2022-07-04T06:05:35;99763.81;;;28.70;33.00
16100;BME280;8154;50.830;12.082;2022-07-04T06:08:19;99749.31;;;28.71;33.38
16100;BME280;8154;50.830;12.082;2022-07-04T06:11:04;99746.19;;;28.74;33.27
16100;BME280;8154;50.830;12.082;2022-07-04T06:13:48;99747.16;;;28.80;33.07
16100;BME280;8154;50.830;12.082;2022-07-04T06:16:32;99750.88;;;28.79;33.19
16100;BME280;8154;50.830;12.082;2022-07-04T06:19:17;99762.47;;;28.79;32.95
16100;BME280;8154;50.830;12.082;2022-07-04T06:22:01;99755.09;;;28.75;33.06
16100;BME280;8154;50.830;12.082;2022-07-04T06:24:45;99752.63;;;28.73;33.07
16100;BME280;8154;50.830;12.082;2022-07-04T06:27:29;99750.97;;;28.72;32.96
16100;BME280;8154;50.830;12.082;2022-07-04T06:30:14;99754.25;;;28.74;33.07
16100;BME280;8154;50.830;12.082;2022-07-04T06:32:58;99753.44;;;28.74;32.90
16100;BME280;8154;50.830;12.082;2022-07-04T06:35:46;99748.41;;;28.77;32.82
16100;BME280;8154;50.830;12.082;2022-07-04T06:38:30;99751.13;;;28.77;32.79
16100;BME280;8154;50.830;12.082;2022-07-04T06:41:14;99749.03;;;28.79;32.45
16100;BME280;8154;50.830;12.082;2022-07-04T06:43:58;99750.88;;;28.79;32.71
16100;BME280;8154;50.830;12.082;2022-07-04T06:46:42;99750.88;;;28.79;32.36
16100;BME280;8154;50.830;12.082;2022-07-04T06:49:27;99746.94;;;28.81;32.49
16100;BME280;8154;50.830;12.082;2022-07-04T06:52:12;99741.13;;;28.84;32.26
16100;BME280;8154;50.830;12.082;2022-07-04T06:54:56;99739.47;;;28.83;32.18
16100;BME280;8154;50.830;12.082;2022-07-04T06:57:40;99740.91;;;28.86;32.02
16100;BME280;8154;50.830;12.082;2022-07-04T07:00:24;99729.28;;;28.85;32.22
16100;BME280;8154;50.830;12.082;2022-07-04T07:03:09;99720.66;;;28.83;31.61
16100;BME280;8154;50.830;12.082;2022-07-04T07:05:53;99726.47;;;28.80;31.80
16100;BME280;8154;50.830;12.082;2022-07-04T07:08:38;99724.97;;;28.84;31.99
16100;BME280;8154;50.830;12.082;2022-07-04T07:11:23;99720.19;;;28.86;31.40
16100;BME280;8154;50.830;12.082;2022-07-04T07:14:07;99723.13;;;28.85;31.65
16100;BME280;8154;50.830;12.082;2022-07-04T07:16:51;99723.91;;;28.85;31.48
16100;BME280;8154;50.830;12.082;2022-07-04T07:19:36;99721.44;;;28.84;31.28
16100;BME280;8154;50.830;12.082;2022-07-04T07:22:20;99717.72;;;28.85;31.34
16100;BME280;8154;50.830;12.082;2022-07-04T07:25:05;99716.69;;;28.86;31.04
16100;BME280;8154;50.830;12.082;2022-07-04T07:27:49;99720.19;;;28.86;31.08
16100;BME280;8154;50.830;12.082;2022-07-04T07:30:33;99724.06;;;28.90;31.07
16100;BME280;8154;50.830;12.082;2022-07-04T07:33:17;99729.00;;;28.93;30.87
16100;BME280;8154;50.830;12.082;2022-07-04T07:36:01;99713.69;;;28.94;30.66
16100;BME280;8154;50.830;12.082;2022-07-04T07:38:45;99719.06;;;28.94;31.08
16100;BME280;8154;50.830;12.082;2022-07-04T07:41:29;99725.03;;;28.96;30.77
16100;BME280;8154;50.830;12.082;2022-07-04T07:44:14;99729.63;;;28.96;30.69
16100;BME280;8154;50.830;12.082;2022-07-04T07:46:58;99729.63;;;28.96;30.96
16100;BME280;8154;50.830;12.082;2022-07-04T07:49:43;99727.31;;;28.99;30.83
16100;BME280;8154;50.830;12.082;2022-07-04T07:52:28;99727.06;;;29.01;30.55
16100;BME280;8154;50.830;12.082;2022-07-04T07:55:12;99727.31;;;28.99;30.63
16100;BME280;8154;50.830;12.082;2022-07-04T07:57:56;99718.84;;;28.96;30.53
16100;BME280;8154;50.830;12.082;2022-07-04T08:00:42;99715.09;;;28.97;30.33
16100;BME280;8154;50.830;12.082;2022-07-04T08:03:28;99715.94;;;28.97;30.15
16100;BME280;8154;50.830;12.082;2022-07-04T08:06:32;99714.28;;;28.96;30.42
16100;BME280;8154;50.830;12.082;2022-07-04T08:09:16;99716.16;;;28.96;30.35
16100;BME280;8154;50.830;12.082;2022-07-04T08:12:02;99718.25;;;28.93;30.23
16100;BME280;8154;50.830;12.082;2022-07-04T08:14:47;99707.25;;;28.95;30.68
16100;BME280;8154;50.830;12.082;2022-07-04T08:17:32;99706.81;;;28.98;30.51
16100;BME280;8154;50.830;12.082;2022-07-04T08:20:16;99705.41;;;28.96;30.51
16100;BME280;8154;50.830;12.082;2022-07-04T08:23:00;99708.53;;;28.92;30.40
16100;BME280;8154;50.830;12.082;2022-07-04T08:25:45;99703.72;;;28.94;30.22
16100;BME280;8154;50.830;12.082;2022-07-04T08:28:29;99708.09;;;28.96;30.57
16100;BME280;8154;50.830;12.082;2022-07-04T08:31:14;99702.31;;;28.92;30.16
16100;BME280;8154;50.830;12.082;2022-07-04T08:33:58;99706.41;;;28.94;30.60
16100;BME280;8154;50.830;12.082;2022-07-04T08:36:42;99709.34;;;28.93;30.41
16100;BME280;8154;50.830;12.082;2022-07-04T08:39:26;99695.66;;;28.94;30.58
16100;BME280;8154;50.830;12.082;2022-07-04T08:42:15;99699.19;;;28.95;30.66
16100;BME280;8154;50.830;12.082;2022-07-04T08:45:02;99693.56;;;28.97;30.64
16100;BME280;8154;50.830;12.082;2022-07-04T08:47:49;99691.94;;;28.96;30.70
16100;BME280;8154;50.830;12.082;2022-07-04T08:50:43;99695.88;;;28.93;30.51
16100;BME280;8154;50.830;12.082;2022-07-04T08:53:31;99691.34;;;28.93;30.64
16100;BME280;8154;50.830;12.082;2022-07-04T08:56:19;99688.66;;;28.93;31.03
16100;BME280;8154;50.830;12.082;2022-07-04T08:59:22;99695.19;;;28.98;30.70
16100;BME280;8154;50.830;12.082;2022-07-04T09:02:06;99697.78;;;28.92;30.69
16100;BME280;8154;50.830;12.082;2022-07-04T09:04:51;99695.09;;;28.92;30.77
16100;BME280;8154;50.830;12.082;2022-07-04T09:07:37;99698.34;;;28.94;30.81
16100;BME280;8154;50.830;12.082;2022-07-04T09:10:22;99698.94;;;28.97;30.82
16100;BME280;8154;50.830;12.082;2022-07-04T09:13:07;99691.88;;;29.02;30.72
16100;BME280;8154;50.830;12.082;2022-07-04T09:15:52;99693.91;;;29.07;30.49
16100;BME280;8154;50.830;12.082;2022-07-04T09:18:37;99698.22;;;29.08;30.35
16100;BME280;8154;50.830;12.082;2022-07-04T09:21:23;99691.63;;;29.04;30.58
16100;BME280;8154;50.830;12.082;2022-07-04T09:24:46;99689.16;;;29.02;30.56
16100;BME280;8154;50.830;12.082;2022-07-04T09:27:37;99689.16;;;29.02;30.79
16100;BME280;8154;50.830;12.082;2022-07-04T09:30:25;99685.88;;;29.00;30.65
16100;BME280;8154;50.830;12.082;2022-07-04T09:33:09;99687.28;;;29.03;30.83
16100;BME280;8154;50.830;12.082;2022-07-04T09:35:53;99690.16;;;29.08;30.47
16100;BME280;8154;50.830;12.082;2022-07-04T09:38:38;99684.78;;;29.08;30.66
16100;BME280;8154;50.830;12.082;2022-07-04T09:41:23;99686.41;;;29.09;30.44
16100;BME280;8154;50.830;12.082;2022-07-04T09:44:13;99678.09;;;29.10;30.81
16100;BME280;8154;50.830;12.082;2022-07-04T09:46:58;99675.63;;;29.09;30.60
16100;BME280;8154;50.830;12.082;2022-07-04T09:50:07;99670.72;;;29.06;30.75
16100;BME280;8154;50.830;12.082;2022-07-04T09:52:59;99681.91;;;29.03;30.72
16100;BME280;8154;50.830;12.082;2022-07-04T09:55:43;99680.25;;;29.02;30.81
16100;BME280;8154;50.830;12.082;2022-07-04T09:58:33;99668.66;;;29.01;30.49
16100;BME280;8154;50.830;12.082;2022-07-04T10:01:19;99672.81;;;29.04;30.79
16100;BME280;8154;50.830;12.082;2022-07-04T10:04:03;99674.44;;;29.05;30.61
16100;BME280;8154;50.830;12.082;2022-07-04T10:06:48;99675.72;;;29.02;30.87
16100;BME280;8154;50.830;12.082;2022-07-04T10:09:32;99669.88;;;29.05;30.81
16100;BME280;8154;50.830;12.082;2022-07-04T10:12:27;99668.63;;;29.08;30.73
16100;BME280;8154;50.830;12.082;2022-07-04T10:15:12;99667.09;;;29.12;30.76
16100;BME280;8154;50.830;12.082;2022-07-04T10:17:56;99673.31;;;29.12;30.61
16100;BME280;8154;50.830;12.082;2022-07-04T10:20:41;99667.56;;;29.09;30.41
16100;BME280;8154;50.830;12.082;2022-07-04T10:23:25;99651.66;;;29.07;30.48
16100;BME280;8154;50.830;12.082;2022-07-04T10:26:19;99667.09;;;29.12;30.64
16100;BME280;8154;50.830;12.082;2022-07-04T10:29:03;99667.09;;;29.12;30.50
16100;BME280;8154;50.830;12.082;2022-07-04T10:31:48;99658.47;;;29.10;30.54
16100;BME280;8154;50.830;12.082;2022-07-04T10:34:40;99647.31;;;29.06;30.79
16100;BME280;8154;50.830;12.082;2022-07-04T10:37:24;99658.50;;;29.03;30.61
16100;BME280;8154;50.830;12.082;2022-07-04T10:40:09;99646.91;;;29.03;30.63
16100;BME280;8154;50.830;12.082;2022-07-04T10:42:53;99659.19;;;28.99;30.97
16100;BME280;8154;50.830;12.082;2022-07-04T10:45:38;99653.22;;;28.97;30.94
16100;BME280;8154;50.830;12.082;2022-07-04T10:48:24;99649.69;;;28.96;30.85
16100;BME280;8154;50.830;12.082;2022-07-04T10:51:08;99645.97;;;28.97;30.93
16100;BME280;8154;50.830;12.082;2022-07-04T10:54:00;99654.66;;;28.99;31.04
16100;BME280;8154;50.830;12.082;2022-07-04T10:59:36;99652.53;;;29.01;30.64
16100;BME280;8154;50.830;12.082;2022-07-04T11:05:10;99647.31;;;29.06;30.87
16100;BME280;8154;50.830;12.082;2022-07-04T11:07:57;99647.09;;;29.08;30.82
16100;BME280;8154;50.830;12.082;2022-07-04T11:10:41;99649.19;;;29.06;30.92
16100;BME280;8154;50.830;12.082;2022-07-04T11:13:26;99639.44;;;29.05;30.59
16100;BME280;8154;50.830;12.082;2022-07-04T11:16:10;99653.97;;;29.04;30.87
16100;BME280;8154;50.830;12.082;2022-07-04T11:18:54;99654.41;;;29.01;30.94
16100;BME280;8154;50.830;12.082;2022-07-04T11:21:39;99646.34;;;29.01;30.94
16100;BME280;8154;50.830;12.082;2022-07-04T11:24:24;99639.28;;;29.00;30.95
16100;BME280;8154;50.830;12.082;2022-07-04T11:27:09;99638.03;;;29.02;31.03
16100;BME280;8154;50.830;12.082;2022-07-04T11:29:55;99645.50;;;29.00;30.90
16100;BME280;8154;50.830;12.082;2022-07-04T11:32:39;99640.13;;;29.00;31.06
16100;BME280;8154;50.830;12.082;2022-07-04T11:35:23;99633.47;;;29.03;31.16
16100;BME280;8154;50.830;12.082;2022-07-04T11:38:08;99635.03;;;29.10;30.68
16100;BME280;8154;50.830;12.082;2022-07-04T11:40:52;99636.00;;;29.16;30.38
16100;BME280;8154;50.830;12.082;2022-07-04T11:43:55;99631.22;;;29.18;30.63
16100;BME280;8154;50.830;12.082;2022-07-04T11:47:14;99631.22;;;29.18;30.58
16100;BME280;8154;50.830;12.082;2022-07-04T11:50:00;99628.97;;;29.15;30.29
16100;BME280;8154;50.830;12.082;2022-07-04T11:52:49;99623.09;;;29.06;30.81
16100;BME280;8154;50.830;12.082;2022-07-04T11:55:37;99630.34;;;29.06;30.66
16100;BME280;8154;50.830;12.082;2022-07-04T11:58:25;99626.44;;;29.02;31.04
16100;BME280;8154;50.830;12.082;2022-07-04T12:01:09;99616.50;;;29.02;31.04
16100;BME280;8154;50.830;12.082;2022-07-04T12:06:57;99620.47;;;29.18;30.43
16100;BME280;8154;50.830;12.082;2022-07-04T12:09:42;99615.50;;;29.15;30.19
16100;BME280;8154;50.830;12.082;2022-07-04T12:12:27;99618.56;;;29.18;30.17
16100;BME280;8154;50.830;12.082;2022-07-04T12:15:11;99599.28;;;29.21;30.33
16100;BME280;8154;50.830;12.082;2022-07-04T12:17:55;99605.56;;;29.15;30.52
16100;BME280;8154;50.830;12.082;2022-07-04T12:20:40;99604.19;;;29.13;30.36
16100;BME280;8154;50.830;12.082;2022-07-04T12:23:24;99600.28;;;29.09;30.86
16100;BME280;8154;50.830;12.082;2022-07-04T12:26:09;99599.91;;;29.05;30.56
16100;BME280;8154;50.830;12.082;2022-07-04T12:28:54;99595.78;;;29.03;30.80
16100;BME280;8154;50.830;12.082;2022-07-04T12:31:44;99588.78;;;29.02;30.32
16100;BME280;8154;50.830;12.082;2022-07-04T12:34:29;99589.81;;;29.01;30.59
16100;BME280;8154;50.830;12.082;2022-07-04T12:37:15;99581.22;;;29.10;30.49
16100;BME280;8154;50.830;12.082;2022-07-04T12:40:07;99572.09;;;29.11;30.23
16100;BME280;8154;50.830;12.082;2022-07-04T12:42:58;99580.75;;;29.13;30.47
16100;BME280;8154;50.830;12.082;2022-07-04T12:45:44;99583.34;;;29.08;30.24
16100;BME280;8154;50.830;12.082;2022-07-04T12:48:29;99574.84;;;29.05;30.51
16100;BME280;8154;50.830;12.082;2022-07-04T12:51:18;99575.91;;;29.04;30.73
16100;BME280;8154;50.830;12.082;2022-07-04T12:54:07;99570.09;;;29.07;30.76
16100;BME280;8154;50.830;12.082;2022-07-04T12:57:12;99575.03;;;29.10;30.74
16100;BME280;8154;50.830;12.082;2022-07-04T12:59:56;99574.56;;;29.13;30.52
16100;BME280;8154;50.830;12.082;2022-07-04T13:02:40;99573.59;;;29.07;30.49
16100;BME280;8154;50.830;12.082;2022-07-04T13:05:24;99567.06;;;29.15;30.47
16100;BME280;8154;50.830;12.082;2022-07-04T13:08:08;99568.72;;;29.16;30.32
16100;BME280;8154;50.830;12.082;2022-07-04T13:10:52;99561.25;;;29.18;30.41
16100;BME280;8154;50.830;12.082;2022-07-04T13:13:56;99557.97;;;29.16;30.36
16100;BME280;8154;50.830;12.082;2022-07-04T13:16:40;99565.88;;;29.11;30.48
16100;BME280;8154;50.830;12.082;2022-07-04T13:19:25;99560.97;;;29.08;30.55
16100;BME280;8154;50.830;12.082;2022-07-04T13:22:08;99562.03;;;29.07;30.80
16100;BME280;8154;50.830;12.082;2022-07-04T13:24:53;99555.59;;;29.08;30.73
16100;BME280;8154;50.830;12.082;2022-07-04T13:27:37;99553.50;;;29.10;30.70
16100;BME280;8154;50.830;12.082;2022-07-04T13:30:22;99551.50;;;29.17;30.28
16100;BME280;8154;50.830;12.082;2022-07-04T13:33:06;99542.50;;;29.23;30.09
16100;BME280;8154;50.830;12.082;2022-07-04T13:35:50;99539.94;;;29.28;30.15
16100;BME280;8154;50.830;12.082;2022-07-04T13:38:35;99539.25;;;29.21;30.32
16100;BME280;8154;50.830;12.082;2022-07-04T13:41:19;99540.97;;;29.15;30.46
16100;BME280;8154;50.830;12.082;2022-07-04T13:44:06;99532.19;;;29.08;30.90
16100;BME280;8154;50.830;12.082;2022-07-04T13:46:50;99530.53;;;29.07;31.01
16100;BME280;8154;50.830;12.082;2022-07-04T13:49:34;99524.41;;;29.00;31.14
16100;BME280;8154;50.830;12.082;2022-07-04T13:52:18;99519.25;;;28.99;31.20
16100;BME280;8154;50.830;12.082;2022-07-04T13:55:02;99516.34;;;29.00;31.13
16100;BME280;8154;50.830;12.082;2022-07-04T13:57:47;99524.28;;;28.95;31.31
16100;BME280;8154;50.830;12.082;2022-07-04T14:00:32;99522.97;;;28.98;31.26
16100;BME280;8154;50.830;12.082;2022-07-04T14:03:16;99510.13;;;29.00;31.22
16100;BME280;8154;50.830;12.082;2022-07-04T14:06:01;99512.97;;;29.05;30.92
16100;BME280;8154;50.830;12.082;2022-07-04T14:08:45;99517.75;;;29.03;31.24
16100;BME280;8154;50.830;12.082;2022-07-04T14:11:29;99514.72;;;28.99;31.15
16100;BME280;8154;50.830;12.082;2022-07-04T14:14:14;99526.50;;;28.98;31.50
16100;BME280;8154;50.830;12.082;2022-07-04T14:16:58;99517.03;;;28.96;31.33
16100;BME280;8154;50.830;12.082;2022-07-04T14:19:43;99514.81;;;28.92;31.20
16100;BME280;8154;50.830;12.082;2022-07-04T14:22:27;99511.66;;;28.96;31.26
16100;BME280;8154;50.830;12.082;2022-07-04T14:25:12;99509.53;;;28.98;31.48
16100;BME280;8154;50.830;12.082;2022-07-04T14:27:56;99506.84;;;28.98;31.15
16100;BME280;8154;50.830;12.082;2022-07-04T14:30:40;99504.16;;;28.98;31.27
16100;BME280;8154;50.830;12.082;2022-07-04T14:33:25;99509.53;;;28.98;31.21
16100;BME280;8154;50.830;12.082;2022-07-04T14:36:09;99497.13;;;28.97;31.06
16100;BME280;8154;50.830;12.082;2022-07-04T14:38:54;99492.22;;;28.93;31.39
16100;BME280;8154;50.830;12.082;2022-07-04T14:41:37;99483.31;;;28.93;31.06
16100;BME280;8154;50.830;12.082;2022-07-04T14:44:21;99493.97;;;29.00;31.21
16100;BME280;8154;50.830;12.082;2022-07-04T14:47:06;99495.28;;;28.97;31.44